Arrowbear Lake, California
Current Conditions -  °F | °C
As of 8:50 PM on Sunday 21 Dec 2014 (Local Time) from KSBD Reporting Station
Haze Haze  
Wind Chill: 55°   Ceiling: 15000
Heat Index: 55°   Visibility: 5mi
Dew Point: 45°   Wind: 3mph
Humidity: 67%   Direction: 150°SSE
Pressure: 30.07"   Gusts: NA
Location:  34.1964°N, 117.089°W
Report Text: KSBD 220450Z 15003KT 5SM HZ OVC150 13/07 A3007 RMK LAST
Loading
Personal Weather Stations






























Interactive Weather Map New forecast layout! Learn more

10-Day Weather Forecast

Advertisements
Track Severe Weather on mobile